sensor_id;sensor_type;location;lat;lon;timestamp;temperature;humidity
69543;SHT31;56762;49.494;11.768;2022-07-30T00:00:34;17.47;91.57
69543;SHT31;56762;49.494;11.768;2022-07-30T00:03:02;17.46;91.59
69543;SHT31;56762;49.494;11.768;2022-07-30T00:05:30;17.46;91.41
69543;SHT31;56762;49.494;11.768;2022-07-30T00:07:58;17.40;91.19
69543;SHT31;56762;49.494;11.768;2022-07-30T00:10:26;17.39;91.39
69543;SHT31;56762;49.494;11.768;2022-07-30T00:12:54;17.36;91.49
69543;SHT31;56762;49.494;11.768;2022-07-30T00:15:25;17.33;91.49
69543;SHT31;56762;49.494;11.768;2022-07-30T00:17:53;17.28;91.49
69543;SHT31;56762;49.494;11.768;2022-07-30T00:20:22;17.26;91.51
69543;SHT31;56762;49.494;11.768;2022-07-30T00:22:53;17.23;91.48
69543;SHT31;56762;49.494;11.768;2022-07-30T00:25:22;17.23;91.62
69543;SHT31;56762;49.494;11.768;2022-07-30T00:27:49;17.19;91.68
69543;SHT31;56762;49.494;11.768;2022-07-30T00:30:17;17.19;91.58
69543;SHT31;56762;49.494;11.768;2022-07-30T00:32:47;17.18;91.55
69543;SHT31;56762;49.494;11.768;2022-07-30T00:35:15;17.16;91.66
69543;SHT31;56762;49.494;11.768;2022-07-30T00:37:44;17.16;91.54
69543;SHT31;56762;49.494;11.768;2022-07-30T00:40:12;17.12;91.66
69543;SHT31;56762;49.494;11.768;2022-07-30T00:42:41;17.14;91.82
69543;SHT31;56762;49.494;11.768;2022-07-30T00:45:10;17.11;91.94
69543;SHT31;56762;49.494;11.768;2022-07-30T00:47:39;17.09;91.73
69543;SHT31;56762;49.494;11.768;2022-07-30T00:50:11;17.09;91.67
69543;SHT31;56762;49.494;11.768;2022-07-30T00:52:40;17.09;91.78
69543;SHT31;56762;49.494;11.768;2022-07-30T00:55:11;17.07;91.81
69543;SHT31;56762;49.494;11.768;2022-07-30T00:57:40;17.04;91.94
69543;SHT31;56762;49.494;11.768;2022-07-30T01:00:10;17.04;91.84
69543;SHT31;56762;49.494;11.768;2022-07-30T01:02:40;17.04;91.73
69543;SHT31;56762;49.494;11.768;2022-07-30T01:05:10;17.02;91.64
69543;SHT31;56762;49.494;11.768;2022-07-30T01:07:38;17.01;91.65
69543;SHT31;56762;49.494;11.768;2022-07-30T01:10:07;17.01;91.69
69543;SHT31;56762;49.494;11.768;2022-07-30T01:12:37;16.98;91.88
69543;SHT31;56762;49.494;11.768;2022-07-30T01:15:07;17.02;91.61
69543;SHT31;56762;49.494;11.768;2022-07-30T01:17:36;16.96;91.64
69543;SHT31;56762;49.494;11.768;2022-07-30T01:20:08;16.94;91.61
69543;SHT31;56762;49.494;11.768;2022-07-30T01:22:50;16.95;91.70
69543;SHT31;56762;49.494;11.768;2022-07-30T01:25:27;16.92;91.64
69543;SHT31;56762;49.494;11.768;2022-07-30T01:28:01;16.91;91.63
69543;SHT31;56762;49.494;11.768;2022-07-30T01:30:33;16.89;91.78
69543;SHT31;56762;49.494;11.768;2022-07-30T01:33:05;16.88;91.76
69543;SHT31;56762;49.494;11.768;2022-07-30T01:35:34;16.89;91.63
69543;SHT31;56762;49.494;11.768;2022-07-30T01:38:04;16.87;91.54
69543;SHT31;56762;49.494;11.768;2022-07-30T01:40:33;16.87;91.64
69543;SHT31;56762;49.494;11.768;2022-07-30T01:43:05;16.82;91.54
69543;SHT31;56762;49.494;11.768;2022-07-30T01:45:37;16.84;91.68
69543;SHT31;56762;49.494;11.768;2022-07-30T01:48:11;16.81;91.35
69543;SHT31;56762;49.494;11.768;2022-07-30T01:50:43;16.78;91.53
69543;SHT31;56762;49.494;11.768;2022-07-30T01:53:13;16.77;91.53
69543;SHT31;56762;49.494;11.768;2022-07-30T01:55:42;16.75;91.61
69543;SHT31;56762;49.494;11.768;2022-07-30T01:58:13;16.74;91.75
69543;SHT31;56762;49.494;11.768;2022-07-30T02:00:43;16.74;91.82
69543;SHT31;56762;49.494;11.768;2022-07-30T02:03:13;16.72;91.78
69543;SHT31;56762;49.494;11.768;2022-07-30T02:05:49;16.68;91.78
69543;SHT31;56762;49.494;11.768;2022-07-30T02:08:25;16.64;91.78
69543;SHT31;56762;49.494;11.768;2022-07-30T02:11:00;16.64;91.53
69543;SHT31;56762;49.494;11.768;2022-07-30T02:13:31;16.63;91.77
69543;SHT31;56762;49.494;11.768;2022-07-30T02:16:06;16.60;91.85
69543;SHT31;56762;49.494;11.768;2022-07-30T02:18:44;16.63;91.79
69543;SHT31;56762;49.494;11.768;2022-07-30T02:21:16;16.58;91.81
69543;SHT31;56762;49.494;11.768;2022-07-30T02:23:47;16.60;91.86
69543;SHT31;56762;49.494;11.768;2022-07-30T02:26:18;16.58;91.93
69543;SHT31;56762;49.494;11.768;2022-07-30T02:28:53;16.56;91.73
69543;SHT31;56762;49.494;11.768;2022-07-30T02:31:24;16.58;91.75
69543;SHT31;56762;49.494;11.768;2022-07-30T02:33:58;16.61;91.98
69543;SHT31;56762;49.494;11.768;2022-07-30T02:36:29;16.58;91.44
69543;SHT31;56762;49.494;11.768;2022-07-30T02:38:58;16.61;91.11
69543;SHT31;56762;49.494;11.768;2022-07-30T02:41:30;16.58;90.73
69543;SHT31;56762;49.494;11.768;2022-07-30T02:44:01;16.54;91.41
69543;SHT31;56762;49.494;11.768;2022-07-30T02:46:30;16.54;91.44
69543;SHT31;56762;49.494;11.768;2022-07-30T02:49:00;16.54;90.72
69543;SHT31;56762;49.494;11.768;2022-07-30T02:51:29;16.48;91.05
69543;SHT31;56762;49.494;11.768;2022-07-30T02:53:59;16.50;91.00
69543;SHT31;56762;49.494;11.768;2022-07-30T02:56:30;16.46;91.19
69543;SHT31;56762;49.494;11.768;2022-07-30T02:59:02;16.43;90.94
69543;SHT31;56762;49.494;11.768;2022-07-30T03:01:32;16.39;90.99
69543;SHT31;56762;49.494;11.768;2022-07-30T03:04:02;16.39;91.40
69543;SHT31;56762;49.494;11.768;2022-07-30T03:06:32;16.37;91.51
69543;SHT31;56762;49.494;11.768;2022-07-30T03:09:02;16.40;91.42
69543;SHT31;56762;49.494;11.768;2022-07-30T03:11:33;16.40;91.18
69543;SHT31;56762;49.494;11.768;2022-07-30T03:14:02;16.41;90.81
69543;SHT31;56762;49.494;11.768;2022-07-30T03:16:35;16.54;90.27
69543;SHT31;56762;49.494;11.768;2022-07-30T03:19:06;16.53;89.76
69543;SHT31;56762;49.494;11.768;2022-07-30T03:21:36;16.48;90.70
69543;SHT31;56762;49.494;11.768;2022-07-30T03:24:06;16.48;90.61
69543;SHT31;56762;49.494;11.768;2022-07-30T03:26:36;16.44;90.28
69543;SHT31;56762;49.494;11.768;2022-07-30T03:29:07;16.43;90.30
69543;SHT31;56762;49.494;11.768;2022-07-30T03:31:38;16.43;90.96
69543;SHT31;56762;49.494;11.768;2022-07-30T03:34:07;16.43;90.75
69543;SHT31;56762;49.494;11.768;2022-07-30T03:36:38;16.40;90.85
69543;SHT31;56762;49.494;11.768;2022-07-30T03:39:07;16.41;90.86
69543;SHT31;56762;49.494;11.768;2022-07-30T03:41:36;16.41;90.81
69543;SHT31;56762;49.494;11.768;2022-07-30T03:44:07;16.41;91.27
69543;SHT31;56762;49.494;11.768;2022-07-30T03:46:36;16.43;91.11
69543;SHT31;56762;49.494;11.768;2022-07-30T03:49:04;16.47;91.37
69543;SHT31;56762;49.494;11.768;2022-07-30T03:51:33;16.51;91.51
69543;SHT31;56762;49.494;11.768;2022-07-30T03:54:03;16.53;91.37
69543;SHT31;56762;49.494;11.768;2022-07-30T03:56:39;16.57;91.45
69543;SHT31;56762;49.494;11.768;2022-07-30T03:59:09;16.57;91.09
69543;SHT31;56762;49.494;11.768;2022-07-30T04:01:39;16.58;91.25
69543;SHT31;56762;49.494;11.768;2022-07-30T04:04:08;16.60;91.48
69543;SHT31;56762;49.494;11.768;2022-07-30T04:06:37;16.60;91.41
69543;SHT31;56762;49.494;11.768;2022-07-30T04:09:06;16.65;91.52
69543;SHT31;56762;49.494;11.768;2022-07-30T04:11:35;16.65;91.51
69543;SHT31;56762;49.494;11.768;2022-07-30T04:14:08;16.67;91.46
69543;SHT31;56762;49.494;11.768;2022-07-30T04:16:41;16.68;91.52
69543;SHT31;56762;49.494;11.768;2022-07-30T04:19:14;16.67;91.29
69543;SHT31;56762;49.494;11.768;2022-07-30T04:21:46;16.65;91.11
69543;SHT31;56762;49.494;11.768;2022-07-30T04:24:15;16.67;91.13
69543;SHT31;56762;49.494;11.768;2022-07-30T04:26:45;16.64;91.18
69543;SHT31;56762;49.494;11.768;2022-07-30T04:29:16;16.67;91.40
69543;SHT31;56762;49.494;11.768;2022-07-30T04:31:51;16.68;91.46
69543;SHT31;56762;49.494;11.768;2022-07-30T04:34:20;16.70;91.36
69543;SHT31;56762;49.494;11.768;2022-07-30T04:36:48;16.74;91.34
69543;SHT31;56762;49.494;11.768;2022-07-30T04:39:16;16.77;91.50
69543;SHT31;56762;49.494;11.768;2022-07-30T04:41:45;16.85;91.47
69543;SHT31;56762;49.494;11.768;2022-07-30T04:44:17;16.85;91.51
69543;SHT31;56762;49.494;11.768;2022-07-30T04:46:46;16.91;90.95
69543;SHT31;56762;49.494;11.768;2022-07-30T04:49:16;16.92;90.71
69543;SHT31;56762;49.494;11.768;2022-07-30T04:51:46;16.96;90.20
69543;SHT31;56762;49.494;11.768;2022-07-30T04:54:16;17.05;89.61
69543;SHT31;56762;49.494;11.768;2022-07-30T04:56:46;16.98;90.46
69543;SHT31;56762;49.494;11.768;2022-07-30T04:59:23;16.99;90.50
69543;SHT31;56762;49.494;11.768;2022-07-30T05:01:55;17.11;89.14
69543;SHT31;56762;49.494;11.768;2022-07-30T05:04:25;17.02;89.90
69543;SHT31;56762;49.494;11.768;2022-07-30T05:06:55;16.99;90.32
69543;SHT31;56762;49.494;11.768;2022-07-30T05:09:24;16.98;90.42
69543;SHT31;56762;49.494;11.768;2022-07-30T05:11:54;16.95;90.39
69543;SHT31;56762;49.494;11.768;2022-07-30T05:14:24;16.98;90.71
69543;SHT31;56762;49.494;11.768;2022-07-30T05:16:53;16.96;90.51
69543;SHT31;56762;49.494;11.768;2022-07-30T05:19:21;16.98;90.73
69543;SHT31;56762;49.494;11.768;2022-07-30T05:21:50;16.96;89.91
69543;SHT31;56762;49.494;11.768;2022-07-30T05:24:19;17.19;89.15
69543;SHT31;56762;49.494;11.768;2022-07-30T05:26:47;17.05;89.33
69543;SHT31;56762;49.494;11.768;2022-07-30T05:29:15;17.02;89.30
69543;SHT31;56762;49.494;11.768;2022-07-30T05:31:47;16.98;89.71
69543;SHT31;56762;49.494;11.768;2022-07-30T05:34:15;16.98;89.63
69543;SHT31;56762;49.494;11.768;2022-07-30T05:36:43;16.94;90.17
69543;SHT31;56762;49.494;11.768;2022-07-30T05:39:12;16.94;89.97
69543;SHT31;56762;49.494;11.768;2022-07-30T05:41:42;16.98;89.55
69543;SHT31;56762;49.494;11.768;2022-07-30T05:44:10;17.08;89.30
69543;SHT31;56762;49.494;11.768;2022-07-30T05:46:38;17.14;89.18
69543;SHT31;56762;49.494;11.768;2022-07-30T05:49:09;17.14;89.52
69543;SHT31;56762;49.494;11.768;2022-07-30T05:51:38;17.11;89.20
69543;SHT31;56762;49.494;11.768;2022-07-30T05:54:06;17.16;88.90
69543;SHT31;56762;49.494;11.768;2022-07-30T05:56:34;17.16;88.94
69543;SHT31;56762;49.494;11.768;2022-07-30T05:59:03;17.20;88.40
69543;SHT31;56762;49.494;11.768;2022-07-30T06:01:31;17.22;89.01
69543;SHT31;56762;49.494;11.768;2022-07-30T06:03:59;17.20;89.13
69543;SHT31;56762;49.494;11.768;2022-07-30T06:06:28;17.30;89.57
69543;SHT31;56762;49.494;11.768;2022-07-30T06:08:56;17.33;89.39
69543;SHT31;56762;49.494;11.768;2022-07-30T06:11:24;17.32;88.78
69543;SHT31;56762;49.494;11.768;2022-07-30T06:13:53;17.35;88.61
69543;SHT31;56762;49.494;11.768;2022-07-30T06:16:21;17.29;89.26
69543;SHT31;56762;49.494;11.768;2022-07-30T06:18:49;17.29;89.47
69543;SHT31;56762;49.494;11.768;2022-07-30T06:21:17;17.29;89.27
69543;SHT31;56762;49.494;11.768;2022-07-30T06:23:46;17.29;89.17
69543;SHT31;56762;49.494;11.768;2022-07-30T06:26:14;17.33;88.63
69543;SHT31;56762;49.494;11.768;2022-07-30T06:28:43;17.38;88.43
69543;SHT31;56762;49.494;11.768;2022-07-30T06:31:11;17.40;88.52
69543;SHT31;56762;49.494;11.768;2022-07-30T06:33:39;17.40;88.13
69543;SHT31;56762;49.494;11.768;2022-07-30T06:36:09;17.45;87.50
69543;SHT31;56762;49.494;11.768;2022-07-30T06:38:39;17.46;87.39
69543;SHT31;56762;49.494;11.768;2022-07-30T06:41:09;17.49;87.08
69543;SHT31;56762;49.494;11.768;2022-07-30T06:43:38;17.50;87.22
69543;SHT31;56762;49.494;11.768;2022-07-30T06:46:06;17.56;87.08
69543;SHT31;56762;49.494;11.768;2022-07-30T06:48:34;17.62;85.91
69543;SHT31;56762;49.494;11.768;2022-07-30T06:51:03;17.67;86.67
69543;SHT31;56762;49.494;11.768;2022-07-30T06:53:31;17.77;86.67
69543;SHT31;56762;49.494;11.768;2022-07-30T06:56:09;17.86;86.55
69543;SHT31;56762;49.494;11.768;2022-07-30T06:58:37;17.91;85.25
69543;SHT31;56762;49.494;11.768;2022-07-30T07:01:05;18.00;85.29
69543;SHT31;56762;49.494;11.768;2022-07-30T07:03:37;18.01;85.22
69543;SHT31;56762;49.494;11.768;2022-07-30T07:06:06;18.07;85.00
69543;SHT31;56762;49.494;11.768;2022-07-30T07:08:35;18.04;84.30
69543;SHT31;56762;49.494;11.768;2022-07-30T07:11:03;18.01;84.25
69543;SHT31;56762;49.494;11.768;2022-07-30T07:13:32;18.11;84.66
69543;SHT31;56762;49.494;11.768;2022-07-30T07:16:00;18.22;83.75
69543;SHT31;56762;49.494;11.768;2022-07-30T07:18:29;18.34;83.16
69543;SHT31;56762;49.494;11.768;2022-07-30T07:20:57;18.45;82.39
69543;SHT31;56762;49.494;11.768;2022-07-30T07:23:25;18.55;82.62
69543;SHT31;56762;49.494;11.768;2022-07-30T07:26:09;18.63;81.44
69543;SHT31;56762;49.494;11.768;2022-07-30T07:28:41;18.68;80.54
69543;SHT31;56762;49.494;11.768;2022-07-30T07:31:09;18.79;80.75
69543;SHT31;56762;49.494;11.768;2022-07-30T07:33:58;18.82;80.60
69543;SHT31;56762;49.494;11.768;2022-07-30T07:36:26;18.86;81.16
69543;SHT31;56762;49.494;11.768;2022-07-30T07:38:54;18.86;81.92
69543;SHT31;56762;49.494;11.768;2022-07-30T07:41:22;18.93;80.50
69543;SHT31;56762;49.494;11.768;2022-07-30T07:43:51;18.98;78.83
69543;SHT31;56762;49.494;11.768;2022-07-30T07:46:19;18.98;79.41
69543;SHT31;56762;49.494;11.768;2022-07-30T07:48:59;19.00;79.24
69543;SHT31;56762;49.494;11.768;2022-07-30T07:51:28;18.98;80.25
69543;SHT31;56762;49.494;11.768;2022-07-30T07:54:14;19.02;80.71
69543;SHT31;56762;49.494;11.768;2022-07-30T07:56:48;19.09;80.47
69543;SHT31;56762;49.494;11.768;2022-07-30T07:59:20;19.14;79.80
69543;SHT31;56762;49.494;11.768;2022-07-30T08:01:52;19.20;79.77
69543;SHT31;56762;49.494;11.768;2022-07-30T08:04:20;19.31;78.52
69543;SHT31;56762;49.494;11.768;2022-07-30T08:06:48;19.46;78.35
69543;SHT31;56762;49.494;11.768;2022-07-30T08:09:16;19.53;77.69
69543;SHT31;56762;49.494;11.768;2022-07-30T08:11:44;19.50;77.80
69543;SHT31;56762;49.494;11.768;2022-07-30T08:14:12;19.48;77.96
69543;SHT31;56762;49.494;11.768;2022-07-30T08:16:41;19.61;76.22
69543;SHT31;56762;49.494;11.768;2022-07-30T08:19:09;19.65;76.29
69543;SHT31;56762;49.494;11.768;2022-07-30T08:21:37;19.61;77.00
69543;SHT31;56762;49.494;11.768;2022-07-30T08:24:06;19.64;78.09
69543;SHT31;56762;49.494;11.768;2022-07-30T08:26:34;19.74;76.64
69543;SHT31;56762;49.494;11.768;2022-07-30T08:29:02;19.75;76.90
69543;SHT31;56762;49.494;11.768;2022-07-30T08:31:30;19.82;76.01
69543;SHT31;56762;49.494;11.768;2022-07-30T08:33:59;19.79;75.91
69543;SHT31;56762;49.494;11.768;2022-07-30T08:36:27;19.81;76.36
69543;SHT31;56762;49.494;11.768;2022-07-30T08:38:55;19.86;77.66
69543;SHT31;56762;49.494;11.768;2022-07-30T08:41:23;19.96;76.95
69543;SHT31;56762;49.494;11.768;2022-07-30T08:43:53;20.04;75.87
69543;SHT31;56762;49.494;11.768;2022-07-30T08:46:23;19.96;76.42
69543;SHT31;56762;49.494;11.768;2022-07-30T08:48:51;20.00;75.48
69543;SHT31;56762;49.494;11.768;2022-07-30T08:51:21;20.00;75.56
69543;SHT31;56762;49.494;11.768;2022-07-30T08:53:49;20.09;76.30
69543;SHT31;56762;49.494;11.768;2022-07-30T08:56:17;20.20;75.40
69543;SHT31;56762;49.494;11.768;2022-07-30T08:58:46;20.23;76.08
69543;SHT31;56762;49.494;11.768;2022-07-30T09:01:14;20.30;75.36
69543;SHT31;56762;49.494;11.768;2022-07-30T09:03:42;20.23;75.16
69543;SHT31;56762;49.494;11.768;2022-07-30T09:06:10;20.25;74.94
69543;SHT31;56762;49.494;11.768;2022-07-30T09:08:40;20.29;74.31
69543;SHT31;56762;49.494;11.768;2022-07-30T09:11:08;20.33;74.45
69543;SHT31;56762;49.494;11.768;2022-07-30T09:13:38;20.49;75.53
69543;SHT31;56762;49.494;11.768;2022-07-30T09:16:17;20.60;74.87
69543;SHT31;56762;49.494;11.768;2022-07-30T09:18:46;20.74;73.47
69543;SHT31;56762;49.494;11.768;2022-07-30T09:21:16;20.77;72.05
69543;SHT31;56762;49.494;11.768;2022-07-30T09:23:59;20.67;72.66
69543;SHT31;56762;49.494;11.768;2022-07-30T09:26:28;20.64;73.22
69543;SHT31;56762;49.494;11.768;2022-07-30T09:29:14;20.76;72.70
69543;SHT31;56762;49.494;11.768;2022-07-30T09:31:52;20.90;71.39
69543;SHT31;56762;49.494;11.768;2022-07-30T09:34:27;20.94;71.49
69543;SHT31;56762;49.494;11.768;2022-07-30T09:36:56;20.98;71.01
69543;SHT31;56762;49.494;11.768;2022-07-30T09:39:30;21.04;71.20
69543;SHT31;56762;49.494;11.768;2022-07-30T09:41:59;21.07;70.67
69543;SHT31;56762;49.494;11.768;2022-07-30T09:44:30;21.11;71.49
69543;SHT31;56762;49.494;11.768;2022-07-30T09:46:58;21.24;70.77
69543;SHT31;56762;49.494;11.768;2022-07-30T09:49:27;21.22;70.25
69543;SHT31;56762;49.494;11.768;2022-07-30T09:51:56;21.21;70.51
69543;SHT31;56762;49.494;11.768;2022-07-30T09:54:24;21.35;69.86
69543;SHT31;56762;49.494;11.768;2022-07-30T09:57:04;21.43;69.59
69543;SHT31;56762;49.494;11.768;2022-07-30T09:59:53;21.41;69.37
69543;SHT31;56762;49.494;11.768;2022-07-30T10:02:32;21.48;69.23
69543;SHT31;56762;49.494;11.768;2022-07-30T10:05:09;21.49;69.16
69543;SHT31;56762;49.494;11.768;2022-07-30T10:07:47;21.55;67.24
69543;SHT31;56762;49.494;11.768;2022-07-30T10:10:18;21.55;67.91
69543;SHT31;56762;49.494;11.768;2022-07-30T10:12:54;21.46;67.55
69543;SHT31;56762;49.494;11.768;2022-07-30T10:15:27;21.46;67.53
69543;SHT31;56762;49.494;11.768;2022-07-30T10:17:58;21.39;68.10
69543;SHT31;56762;49.494;11.768;2022-07-30T10:20:27;21.48;67.71
69543;SHT31;56762;49.494;11.768;2022-07-30T10:22:58;21.60;66.86
69543;SHT31;56762;49.494;11.768;2022-07-30T10:25:34;21.63;67.75
69543;SHT31;56762;49.494;11.768;2022-07-30T10:28:23;21.72;66.27
69543;SHT31;56762;49.494;11.768;2022-07-30T10:30:53;21.72;66.28
69543;SHT31;56762;49.494;11.768;2022-07-30T10:33:23;21.76;65.96
69543;SHT31;56762;49.494;11.768;2022-07-30T10:36:04;21.75;67.10
69543;SHT31;56762;49.494;11.768;2022-07-30T10:38:37;21.86;65.99
69543;SHT31;56762;49.494;11.768;2022-07-30T10:41:15;21.83;65.91
69543;SHT31;56762;49.494;11.768;2022-07-30T10:44:22;21.75;66.09
69543;SHT31;56762;49.494;11.768;2022-07-30T10:46:59;21.73;65.71
69543;SHT31;56762;49.494;11.768;2022-07-30T10:49:33;21.72;64.19
69543;SHT31;56762;49.494;11.768;2022-07-30T10:52:08;21.73;63.90
69543;SHT31;56762;49.494;11.768;2022-07-30T10:54:40;21.75;64.30
69543;SHT31;56762;49.494;11.768;2022-07-30T10:57:11;21.76;63.76
69543;SHT31;56762;49.494;11.768;2022-07-30T11:00:13;21.78;63.65
69543;SHT31;56762;49.494;11.768;2022-07-30T11:03:15;21.69;65.20
69543;SHT31;56762;49.494;11.768;2022-07-30T11:05:45;21.58;64.67
69543;SHT31;56762;49.494;11.768;2022-07-30T11:08:31;21.56;65.17
69543;SHT31;56762;49.494;11.768;2022-07-30T11:11:41;21.59;65.70
69543;SHT31;56762;49.494;11.768;2022-07-30T11:14:15;21.79;64.79
69543;SHT31;56762;49.494;11.768;2022-07-30T11:17:00;21.89;64.44
69543;SHT31;56762;49.494;11.768;2022-07-30T11:19:29;22.06;62.20
69543;SHT31;56762;49.494;11.768;2022-07-30T11:22:22;22.16;61.68
69543;SHT31;56762;49.494;11.768;2022-07-30T11:24:51;22.17;61.47
69543;SHT31;56762;49.494;11.768;2022-07-30T11:27:36;22.28;60.76
69543;SHT31;56762;49.494;11.768;2022-07-30T11:30:31;22.25;61.16
69543;SHT31;56762;49.494;11.768;2022-07-30T11:33:21;22.24;61.09
69543;SHT31;56762;49.494;11.768;2022-07-30T11:36:07;22.30;59.57
69543;SHT31;56762;49.494;11.768;2022-07-30T11:38:51;22.34;60.65
69543;SHT31;56762;49.494;11.768;2022-07-30T11:41:19;22.28;61.43
69543;SHT31;56762;49.494;11.768;2022-07-30T11:43:47;22.25;62.17
69543;SHT31;56762;49.494;11.768;2022-07-30T11:46:16;22.28;61.82
69543;SHT31;56762;49.494;11.768;2022-07-30T11:48:57;22.25;59.10
69543;SHT31;56762;49.494;11.768;2022-07-30T11:51:25;22.24;58.96
69543;SHT31;56762;49.494;11.768;2022-07-30T11:54:01;22.20;58.53
69543;SHT31;56762;49.494;11.768;2022-07-30T11:56:30;22.21;57.36
69543;SHT31;56762;49.494;11.768;2022-07-30T11:59:02;22.16;57.75
69543;SHT31;56762;49.494;11.768;2022-07-30T12:01:31;22.11;57.93
69543;SHT31;56762;49.494;11.768;2022-07-30T12:04:03;22.04;58.46
69543;SHT31;56762;49.494;11.768;2022-07-30T12:06:31;22.01;58.79
69543;SHT31;56762;49.494;11.768;2022-07-30T12:09:02;21.96;58.29
69543;SHT31;56762;49.494;11.768;2022-07-30T12:11:30;21.90;59.61
69543;SHT31;56762;49.494;11.768;2022-07-30T12:13:59;21.89;59.42
69543;SHT31;56762;49.494;11.768;2022-07-30T12:16:29;21.93;59.79
69543;SHT31;56762;49.494;11.768;2022-07-30T12:19:02;21.96;59.68
69543;SHT31;56762;49.494;11.768;2022-07-30T12:21:30;21.99;59.21
69543;SHT31;56762;49.494;11.768;2022-07-30T12:24:00;21.90;59.21
69543;SHT31;56762;49.494;11.768;2022-07-30T12:26:29;21.92;58.93
69543;SHT31;56762;49.494;11.768;2022-07-30T12:29:02;21.86;58.76
69543;SHT31;56762;49.494;11.768;2022-07-30T12:31:30;21.76;58.78
69543;SHT31;56762;49.494;11.768;2022-07-30T12:34:17;21.70;58.89
69543;SHT31;56762;49.494;11.768;2022-07-30T12:36:45;21.66;59.77
69543;SHT31;56762;49.494;11.768;2022-07-30T12:39:18;21.83;59.17
69543;SHT31;56762;49.494;11.768;2022-07-30T12:41:48;21.75;60.01
69543;SHT31;56762;49.494;11.768;2022-07-30T12:44:36;21.75;60.05
69543;SHT31;56762;49.494;11.768;2022-07-30T12:47:05;21.70;60.00
69543;SHT31;56762;49.494;11.768;2022-07-30T12:49:34;21.78;60.36
69543;SHT31;56762;49.494;11.768;2022-07-30T12:52:23;22.01;58.20
69543;SHT31;56762;49.494;11.768;2022-07-30T12:55:02;22.09;57.68
69543;SHT31;56762;49.494;11.768;2022-07-30T12:57:56;22.17;57.90
69543;SHT31;56762;49.494;11.768;2022-07-30T13:00:29;22.25;57.10
69543;SHT31;56762;49.494;11.768;2022-07-30T13:02:57;22.50;55.33
69543;SHT31;56762;49.494;11.768;2022-07-30T13:05:43;22.67;54.91
69543;SHT31;56762;49.494;11.768;2022-07-30T13:08:11;22.61;55.26
69543;SHT31;56762;49.494;11.768;2022-07-30T13:10:53;22.57;54.88
69543;SHT31;56762;49.494;11.768;2022-07-30T13:13:20;22.51;55.28
69543;SHT31;56762;49.494;11.768;2022-07-30T13:15:56;22.51;55.86
69543;SHT31;56762;49.494;11.768;2022-07-30T13:18:24;22.48;56.45
69543;SHT31;56762;49.494;11.768;2022-07-30T13:20:53;22.41;57.00
69543;SHT31;56762;49.494;11.768;2022-07-30T13:23:21;22.36;57.30
69543;SHT31;56762;49.494;11.768;2022-07-30T13:25:49;22.28;57.92
69543;SHT31;56762;49.494;11.768;2022-07-30T13:28:17;22.24;58.42
69543;SHT31;56762;49.494;11.768;2022-07-30T13:30:46;22.25;58.82
69543;SHT31;56762;49.494;11.768;2022-07-30T13:33:14;22.33;59.30
69543;SHT31;56762;49.494;11.768;2022-07-30T13:35:42;22.33;57.12
69543;SHT31;56762;49.494;11.768;2022-07-30T13:38:11;22.33;57.32
69543;SHT31;56762;49.494;11.768;2022-07-30T13:40:41;22.41;56.19
69543;SHT31;56762;49.494;11.768;2022-07-30T13:43:09;22.38;56.28
69543;SHT31;56762;49.494;11.768;2022-07-30T13:45:37;22.36;56.72
69543;SHT31;56762;49.494;11.768;2022-07-30T13:48:05;22.34;56.93
69543;SHT31;56762;49.494;11.768;2022-07-30T13:50:33;22.37;56.60
69543;SHT31;56762;49.494;11.768;2022-07-30T13:53:00;22.47;55.85
69543;SHT31;56762;49.494;11.768;2022-07-30T13:55:30;22.48;56.38
69543;SHT31;56762;49.494;11.768;2022-07-30T13:57:58;22.50;56.09
69543;SHT31;56762;49.494;11.768;2022-07-30T14:00:27;22.52;55.41
69543;SHT31;56762;49.494;11.768;2022-07-30T14:02:59;22.55;54.67
69543;SHT31;56762;49.494;11.768;2022-07-30T14:05:27;22.61;52.97
69543;SHT31;56762;49.494;11.768;2022-07-30T14:07:55;22.52;53.95
69543;SHT31;56762;49.494;11.768;2022-07-30T14:10:23;22.54;54.12
69543;SHT31;56762;49.494;11.768;2022-07-30T14:12:53;22.44;54.76
69543;SHT31;56762;49.494;11.768;2022-07-30T14:15:22;22.44;54.91
69543;SHT31;56762;49.494;11.768;2022-07-30T14:17:50;22.41;55.47
69543;SHT31;56762;49.494;11.768;2022-07-30T14:20:22;22.44;55.85
69543;SHT31;56762;49.494;11.768;2022-07-30T14:22:54;22.41;56.28
69543;SHT31;56762;49.494;11.768;2022-07-30T14:25:22;22.48;56.15
69543;SHT31;56762;49.494;11.768;2022-07-30T14:27:50;22.59;55.45
69543;SHT31;56762;49.494;11.768;2022-07-30T14:30:19;22.68;55.40
69543;SHT31;56762;49.494;11.768;2022-07-30T14:32:49;22.71;55.59
69543;SHT31;56762;49.494;11.768;2022-07-30T14:35:25;22.76;55.68
69543;SHT31;56762;49.494;11.768;2022-07-30T14:37:54;22.62;56.96
69543;SHT31;56762;49.494;11.768;2022-07-30T14:40:22;22.59;57.58
69543;SHT31;56762;49.494;11.768;2022-07-30T14:42:49;22.61;56.32
69543;SHT31;56762;49.494;11.768;2022-07-30T14:45:23;22.45;54.46
69543;SHT31;56762;49.494;11.768;2022-07-30T14:47:51;22.33;54.45
69543;SHT31;56762;49.494;11.768;2022-07-30T14:50:19;22.16;54.81
69543;SHT31;56762;49.494;11.768;2022-07-30T14:52:47;22.01;55.12
69543;SHT31;56762;49.494;11.768;2022-07-30T14:55:15;21.90;55.54
69543;SHT31;56762;49.494;11.768;2022-07-30T14:57:42;21.79;56.16
69543;SHT31;56762;49.494;11.768;2022-07-30T15:00:11;21.83;56.26
69543;SHT31;56762;49.494;11.768;2022-07-30T15:02:40;21.82;56.49
69543;SHT31;56762;49.494;11.768;2022-07-30T15:05:08;21.63;56.08
69543;SHT31;56762;49.494;11.768;2022-07-30T15:07:36;21.52;57.79
69543;SHT31;56762;49.494;11.768;2022-07-30T15:10:04;21.31;59.89
69543;SHT31;56762;49.494;11.768;2022-07-30T15:12:33;21.14;60.96
69543;SHT31;56762;49.494;11.768;2022-07-30T15:15:03;21.08;60.69
69543;SHT31;56762;49.494;11.768;2022-07-30T15:17:33;20.85;62.84
69543;SHT31;56762;49.494;11.768;2022-07-30T15:20:05;20.73;66.52
69543;SHT31;56762;49.494;11.768;2022-07-30T15:22:34;20.66;68.05
69543;SHT31;56762;49.494;11.768;2022-07-30T15:25:03;20.61;66.72
69543;SHT31;56762;49.494;11.768;2022-07-30T15:27:31;20.49;68.14
69543;SHT31;56762;49.494;11.768;2022-07-30T15:30:00;20.47;66.97
69543;SHT31;56762;49.494;11.768;2022-07-30T15:32:28;20.37;67.02
69543;SHT31;56762;49.494;11.768;2022-07-30T15:34:56;20.25;67.88
69543;SHT31;56762;49.494;11.768;2022-07-30T15:37:25;20.22;67.77
69543;SHT31;56762;49.494;11.768;2022-07-30T15:39:53;20.32;66.30